sensor_id;sensor_type;location;lat;lon;timestamp;pressure;altitude;pressure_sealevel;temperature;humidity
56807;BME280;42687;42.524;12.052;2023-04-27T00:00:29;96688.03;;;6.16;67.27
56807;BME280;42687;42.524;12.052;2023-04-27T00:02:55;96688.19;;;6.13;67.46
56807;BME280;42687;42.524;12.052;2023-04-27T00:05:21;96689.34;;;6.06;66.93
56807;BME280;42687;42.524;12.052;2023-04-27T00:07:47;96691.31;;;6.01;68.27
56807;BME280;42687;42.524;12.052;2023-04-27T00:10:12;96688.06;;;5.94;68.50
56807;BME280;42687;42.524;12.052;2023-04-27T00:12:38;96686.88;;;5.81;68.75
56807;BME280;42687;42.524;12.052;2023-04-27T00:15:07;96687.94;;;5.75;70.59
56807;BME280;42687;42.524;12.052;2023-04-27T00:17:32;96688.22;;;5.69;70.94
56807;BME280;42687;42.524;12.052;2023-04-27T00:19:58;96684.72;;;5.68;69.87
56807;BME280;42687;42.524;12.052;2023-04-27T00:22:25;96681.75;;;5.78;67.07
56807;BME280;42687;42.524;12.052;2023-04-27T00:24:51;96685.56;;;5.91;66.01
56807;BME280;42687;42.524;12.052;2023-04-27T00:27:19;96673.69;;;6.06;66.57
56807;BME280;42687;42.524;12.052;2023-04-27T00:29:45;96682.97;;;6.13;68.22
56807;BME280;42687;42.524;12.052;2023-04-27T00:32:11;96685.78;;;6.09;69.79
56807;BME280;42687;42.524;12.052;2023-04-27T00:34:37;96685.69;;;6.10;69.69
56807;BME280;42687;42.524;12.052;2023-04-27T00:37:04;96680.88;;;6.01;70.82
56807;BME280;42687;42.524;12.052;2023-04-27T00:39:32;96678.91;;;5.84;72.29
56807;BME280;42687;42.524;12.052;2023-04-27T00:41:59;96633.59;;;5.42;70.26
56807;BME280;42687;42.524;12.052;2023-04-27T00:44:26;96674.56;;;5.62;68.52
56807;BME280;42687;42.524;12.052;2023-04-27T00:46:53;96682.09;;;5.46;64.86
56807;BME280;42687;42.524;12.052;2023-04-27T00:49:22;96689.56;;;5.33;64.24
56807;BME280;42687;42.524;12.052;2023-04-27T00:51:48;96688.28;;;5.22;64.27
56807;BME280;42687;42.524;12.052;2023-04-27T00:54:18;96673.06;;;5.11;69.67
56807;BME280;42687;42.524;12.052;2023-04-27T00:56:46;96675.31;;;5.20;72.05
56807;BME280;42687;42.524;12.052;2023-04-27T00:59:12;96685.25;;;5.32;71.50
56807;BME280;42687;42.524;12.052;2023-04-27T01:01:38;96678.84;;;5.41;68.70
56807;BME280;42687;42.524;12.052;2023-04-27T01:04:04;96681.47;;;5.41;63.83
56807;BME280;42687;42.524;12.052;2023-04-27T01:06:29;96672.72;;;5.42;65.78
56807;BME280;42687;42.524;12.052;2023-04-27T01:08:56;96669.25;;;5.42;68.23
56807;BME280;42687;42.524;12.052;2023-04-27T01:11:22;96675.16;;;5.47;70.52
56807;BME280;42687;42.524;12.052;2023-04-27T01:13:48;96670.47;;;5.55;72.03
56807;BME280;42687;42.524;12.052;2023-04-27T01:16:16;96670.03;;;5.66;71.18
56807;BME280;42687;42.524;12.052;2023-04-27T01:18:42;96667.81;;;5.79;68.69
56807;BME280;42687;42.524;12.052;2023-04-27T01:21:09;96666.41;;;5.70;67.52
56807;BME280;42687;42.524;12.052;2023-04-27T01:23:34;96668.00;;;5.52;64.93
56807;BME280;42687;42.524;12.052;2023-04-27T01:26:01;96655.13;;;5.25;63.78
56807;BME280;42687;42.524;12.052;2023-04-27T01:28:27;96658.72;;;5.23;66.82
56807;BME280;42687;42.524;12.052;2023-04-27T01:30:52;96667.25;;;5.26;67.36
56807;BME280;42687;42.524;12.052;2023-04-27T01:33:18;96679.75;;;5.40;63.90
56807;BME280;42687;42.524;12.052;2023-04-27T01:35:44;96683.66;;;5.52;63.45
56807;BME280;42687;42.524;12.052;2023-04-27T01:38:11;96692.03;;;5.60;61.91
56807;BME280;42687;42.524;12.052;2023-04-27T01:40:37;96669.03;;;5.48;61.39
56807;BME280;42687;42.524;12.052;2023-04-27T01:43:03;96686.38;;;5.71;61.38
56807;BME280;42687;42.524;12.052;2023-04-27T01:45:29;96685.81;;;5.85;62.28
56807;BME280;42687;42.524;12.052;2023-04-27T01:47:55;96688.97;;;5.93;65.02
56807;BME280;42687;42.524;12.052;2023-04-27T01:50:20;96690.44;;;6.00;66.30
56807;BME280;42687;42.524;12.052;2023-04-27T01:52:46;96687.06;;;5.98;65.48
56807;BME280;42687;42.524;12.052;2023-04-27T01:55:12;96691.16;;;6.04;66.91
56807;BME280;42687;42.524;12.052;2023-04-27T01:57:38;96674.88;;;5.97;69.74
56807;BME280;42687;42.524;12.052;2023-04-27T02:00:04;96684.13;;;6.06;69.96
56807;BME280;42687;42.524;12.052;2023-04-27T02:02:30;96685.81;;;6.07;71.61
56807;BME280;42687;42.524;12.052;2023-04-27T02:04:56;96686.53;;;6.11;69.87
56807;BME280;42687;42.524;12.052;2023-04-27T02:07:22;96685.81;;;6.07;70.19
56807;BME280;42687;42.524;12.052;2023-04-27T02:09:48;96686.91;;;6.01;68.79
56807;BME280;42687;42.524;12.052;2023-04-27T02:12:13;96689.88;;;5.92;68.75
56807;BME280;42687;42.524;12.052;2023-04-27T02:14:39;96689.56;;;5.78;71.17
56807;BME280;42687;42.524;12.052;2023-04-27T02:17:05;96686.59;;;5.65;73.20
56807;BME280;42687;42.524;12.052;2023-04-27T02:19:31;96688.50;;;5.61;73.10
56807;BME280;42687;42.524;12.052;2023-04-27T02:21:57;96692.56;;;5.68;68.98
56807;BME280;42687;42.524;12.052;2023-04-27T02:24:22;96684.66;;;5.70;67.09
56807;BME280;42687;42.524;12.052;2023-04-27T02:26:48;96687.47;;;5.65;65.73
56807;BME280;42687;42.524;12.052;2023-04-27T02:29:14;96688.66;;;5.57;66.35
56807;BME280;42687;42.524;12.052;2023-04-27T02:31:41;96684.50;;;5.53;64.46
56807;BME280;42687;42.524;12.052;2023-04-27T02:34:07;96657.94;;;5.43;65.57
56807;BME280;42687;42.524;12.052;2023-04-27T02:36:32;96679.88;;;5.59;65.95
56807;BME280;42687;42.524;12.052;2023-04-27T02:38:58;96685.28;;;5.55;66.60
56807;BME280;42687;42.524;12.052;2023-04-27T02:41:24;96682.69;;;5.55;73.07
56807;BME280;42687;42.524;12.052;2023-04-27T02:43:52;96678.38;;;5.54;70.57
56807;BME280;42687;42.524;12.052;2023-04-27T02:46:18;96676.66;;;5.53;76.11
56807;BME280;42687;42.524;12.052;2023-04-27T02:48:43;96682.47;;;5.59;81.51
56807;BME280;42687;42.524;12.052;2023-04-27T02:51:09;96686.66;;;5.63;83.56
56807;BME280;42687;42.524;12.052;2023-04-27T02:53:35;96682.78;;;5.74;82.04
56807;BME280;42687;42.524;12.052;2023-04-27T02:56:01;96692.03;;;5.82;79.29
56807;BME280;42687;42.524;12.052;2023-04-27T02:58:26;96689.47;;;5.81;75.98
56807;BME280;42687;42.524;12.052;2023-04-27T03:00:53;96682.19;;;5.67;75.01
56807;BME280;42687;42.524;12.052;2023-04-27T03:03:20;96687.16;;;5.51;68.83
56807;BME280;42687;42.524;12.052;2023-04-27T03:05:46;96683.72;;;5.50;70.91
56807;BME280;42687;42.524;12.052;2023-04-27T03:08:12;96679.03;;;5.59;76.53
56807;BME280;42687;42.524;12.052;2023-04-27T03:10:38;96690.84;;;5.67;74.93
56807;BME280;42687;42.524;12.052;2023-04-27T03:13:03;96700.44;;;5.67;70.22
56807;BME280;42687;42.524;12.052;2023-04-27T03:15:29;96695.91;;;5.72;75.86
56807;BME280;42687;42.524;12.052;2023-04-27T03:17:55;96697.31;;;5.81;77.43
56807;BME280;42687;42.524;12.052;2023-04-27T03:20:21;96700.44;;;5.89;80.08
56807;BME280;42687;42.524;12.052;2023-04-27T03:22:47;96707.88;;;6.00;82.03
56807;BME280;42687;42.524;12.052;2023-04-27T03:25:13;96699.66;;;6.09;85.81
56807;BME280;42687;42.524;12.052;2023-04-27T03:27:39;96695.88;;;6.16;86.34
56807;BME280;42687;42.524;12.052;2023-04-27T03:30:05;96694.78;;;6.22;85.30
56807;BME280;42687;42.524;12.052;2023-04-27T03:32:31;96693.91;;;6.22;87.09
56807;BME280;42687;42.524;12.052;2023-04-27T03:34:57;96694.13;;;6.17;87.48
56807;BME280;42687;42.524;12.052;2023-04-27T03:37:23;96687.66;;;6.05;88.91
56807;BME280;42687;42.524;12.052;2023-04-27T03:39:49;96694.25;;;5.92;87.93
56807;BME280;42687;42.524;12.052;2023-04-27T03:42:15;96694.19;;;5.71;85.49
56807;BME280;42687;42.524;12.052;2023-04-27T03:44:41;96682.75;;;5.53;84.89
56807;BME280;42687;42.524;12.052;2023-04-27T03:47:06;96686.78;;;5.38;81.02
56807;BME280;42687;42.524;12.052;2023-04-27T03:49:34;96684.31;;;5.35;80.11
56807;BME280;42687;42.524;12.052;2023-04-27T03:52:01;96684.47;;;5.30;86.00
56807;BME280;42687;42.524;12.052;2023-04-27T03:54:27;96697.81;;;5.23;88.05
56807;BME280;42687;42.524;12.052;2023-04-27T03:56:53;96687.06;;;5.08;84.73
56807;BME280;42687;42.524;12.052;2023-04-27T03:59:19;96695.59;;;5.12;86.98
56807;BME280;42687;42.524;12.052;2023-04-27T04:01:45;96705.31;;;5.30;88.71
56807;BME280;42687;42.524;12.052;2023-04-27T04:04:11;96708.44;;;5.40;90.59
56807;BME280;42687;42.524;12.052;2023-04-27T04:06:37;96707.84;;;5.56;93.16
56807;BME280;42687;42.524;12.052;2023-04-27T04:09:02;96720.34;;;5.70;96.24
56807;BME280;42687;42.524;12.052;2023-04-27T04:11:29;96717.38;;;5.79;96.83
56807;BME280;42687;42.524;12.052;2023-04-27T04:13:55;96695.28;;;5.65;96.87
56807;BME280;42687;42.524;12.052;2023-04-27T04:16:20;96717.44;;;5.77;97.30
56807;BME280;42687;42.524;12.052;2023-04-27T04:18:46;96702.16;;;5.68;98.04
56807;BME280;42687;42.524;12.052;2023-04-27T04:21:12;96705.44;;;5.73;99.47
56807;BME280;42687;42.524;12.052;2023-04-27T04:23:38;96703.59;;;5.75;100.00
56807;BME280;42687;42.524;12.052;2023-04-27T04:26:05;96720.59;;;5.85;100.00
56807;BME280;42687;42.524;12.052;2023-04-27T04:28:31;96717.19;;;5.83;100.00
56807;BME280;42687;42.524;12.052;2023-04-27T04:30:59;96722.59;;;5.79;100.00
56807;BME280;42687;42.524;12.052;2023-04-27T04:33:25;96732.22;;;5.77;100.00
56807;BME280;42687;42.524;12.052;2023-04-27T04:35:51;96731.69;;;5.68;100.00
56807;BME280;42687;42.524;12.052;2023-04-27T04:38:18;96730.00;;;5.67;98.92
56807;BME280;42687;42.524;12.052;2023-04-27T04:40:44;96736.38;;;5.82;97.19
56807;BME280;42687;42.524;12.052;2023-04-27T04:43:10;96725.50;;;5.93;99.31
56807;BME280;42687;42.524;12.052;2023-04-27T04:45:36;96740.47;;;6.12;99.30
56807;BME280;42687;42.524;12.052;2023-04-27T04:48:02;96743.81;;;6.15;97.03
56807;BME280;42687;42.524;12.052;2023-04-27T04:50:28;96744.81;;;6.11;95.86
56807;BME280;42687;42.524;12.052;2023-04-27T04:52:54;96755.25;;;6.11;95.85
56807;BME280;42687;42.524;12.052;2023-04-27T04:55:20;96699.94;;;5.79;92.04
56807;BME280;42687;42.524;12.052;2023-04-27T04:57:46;96764.88;;;6.11;90.36
56807;BME280;42687;42.524;12.052;2023-04-27T05:00:13;96760.13;;;6.21;90.69
56807;BME280;42687;42.524;12.052;2023-04-27T05:02:39;96754.84;;;6.22;91.93
56807;BME280;42687;42.524;12.052;2023-04-27T05:05:07;96735.09;;;6.15;92.07
56807;BME280;42687;42.524;12.052;2023-04-27T05:07:33;96758.44;;;6.40;92.93
56807;BME280;42687;42.524;12.052;2023-04-27T05:09:59;96749.47;;;6.47;94.78
56807;BME280;42687;42.524;12.052;2023-04-27T05:12:24;96778.78;;;6.75;94.76
56807;BME280;42687;42.524;12.052;2023-04-27T05:14:51;96786.06;;;6.89;95.91
56807;BME280;42687;42.524;12.052;2023-04-27T05:17:17;96787.41;;;6.97;95.86
56807;BME280;42687;42.524;12.052;2023-04-27T05:19:43;96779.50;;;6.99;93.25
56807;BME280;42687;42.524;12.052;2023-04-27T05:22:09;96784.28;;;7.10;94.06
56807;BME280;42687;42.524;12.052;2023-04-27T05:24:35;96802.28;;;7.16;93.74
56807;BME280;42687;42.524;12.052;2023-04-27T05:27:01;96785.63;;;7.18;95.49
56807;BME280;42687;42.524;12.052;2023-04-27T05:29:27;96789.66;;;7.26;92.29
56807;BME280;42687;42.524;12.052;2023-04-27T05:31:53;96803.50;;;7.48;91.90
56807;BME280;42687;42.524;12.052;2023-04-27T05:34:18;96794.94;;;7.64;92.43
56807;BME280;42687;42.524;12.052;2023-04-27T05:36:44;96804.06;;;7.74;91.56
56807;BME280;42687;42.524;12.052;2023-04-27T05:39:13;96803.63;;;7.83;90.73
56807;BME280;42687;42.524;12.052;2023-04-27T05:41:39;96799.47;;;7.98;94.15
56807;BME280;42687;42.524;12.052;2023-04-27T05:44:05;96799.59;;;8.14;91.93
56807;BME280;42687;42.524;12.052;2023-04-27T05:46:31;96795.38;;;8.29;89.16
56807;BME280;42687;42.524;12.052;2023-04-27T05:48:58;96793.06;;;8.41;89.57
56807;BME280;42687;42.524;12.052;2023-04-27T05:51:24;96797.75;;;8.53;86.76
56807;BME280;42687;42.524;12.052;2023-04-27T05:53:50;96805.44;;;8.74;84.74
56807;BME280;42687;42.524;12.052;2023-04-27T05:56:20;96796.00;;;8.89;86.25
56807;BME280;42687;42.524;12.052;2023-04-27T05:58:46;96801.19;;;9.24;83.58
56807;BME280;42687;42.524;12.052;2023-04-27T06:01:11;96803.41;;;9.97;76.82
56807;BME280;42687;42.524;12.052;2023-04-27T06:03:37;96793.97;;;10.87;69.01
56807;BME280;42687;42.524;12.052;2023-04-27T06:06:03;96799.56;;;11.83;67.36
56807;BME280;42687;42.524;12.052;2023-04-27T06:08:29;96797.34;;;12.74;67.44
56807;BME280;42687;42.524;12.052;2023-04-27T06:10:55;96790.78;;;13.71;67.47
56807;BME280;42687;42.524;12.052;2023-04-27T06:13:21;96807.81;;;14.41;67.76
56807;BME280;42687;42.524;12.052;2023-04-27T06:15:47;96805.91;;;14.92;67.97
56807;BME280;42687;42.524;12.052;2023-04-27T06:18:13;96789.53;;;15.33;67.81
56807;BME280;42687;42.524;12.052;2023-04-27T06:20:39;96808.59;;;15.95;66.92
56807;BME280;42687;42.524;12.052;2023-04-27T06:23:05;96812.44;;;16.37;65.59
56807;BME280;42687;42.524;12.052;2023-04-27T06:25:31;96814.97;;;16.71;64.83
56807;BME280;42687;42.524;12.052;2023-04-27T06:27:57;96812.47;;;17.23;63.01
56807;BME280;42687;42.524;12.052;2023-04-27T06:30:23;96822.50;;;17.61;61.34
56807;BME280;42687;42.524;12.052;2023-04-27T06:32:50;96806.75;;;17.79;60.58
56807;BME280;42687;42.524;12.052;2023-04-27T06:35:16;96808.75;;;18.08;59.14
56807;BME280;42687;42.524;12.052;2023-04-27T06:37:42;96801.94;;;18.25;58.47
56807;BME280;42687;42.524;12.052;2023-04-27T06:40:09;96821.34;;;18.76;57.15
56807;BME280;42687;42.524;12.052;2023-04-27T06:42:35;96810.03;;;19.04;55.66
56807;BME280;42687;42.524;12.052;2023-04-27T06:45:02;96806.94;;;19.18;54.88
56807;BME280;42687;42.524;12.052;2023-04-27T06:47:29;96819.25;;;19.29;54.12
56807;BME280;42687;42.524;12.052;2023-04-27T06:49:54;96825.69;;;19.36;53.62
56807;BME280;42687;42.524;12.052;2023-04-27T06:52:20;96829.25;;;19.74;52.91
56807;BME280;42687;42.524;12.052;2023-04-27T06:54:46;96826.13;;;19.98;52.71
56807;BME280;42687;42.524;12.052;2023-04-27T06:57:12;96820.13;;;20.24;52.80
56807;BME280;42687;42.524;12.052;2023-04-27T06:59:38;96802.22;;;20.35;52.39
56807;BME280;42687;42.524;12.052;2023-04-27T07:02:05;96826.06;;;20.64;52.33
56807;BME280;42687;42.524;12.052;2023-04-27T07:04:32;96824.69;;;20.60;52.86
56807;BME280;42687;42.524;12.052;2023-04-27T07:06:57;96836.28;;;20.50;53.45
56807;BME280;42687;42.524;12.052;2023-04-27T07:09:23;96825.09;;;20.65;53.88
56807;BME280;42687;42.524;12.052;2023-04-27T07:11:49;96826.56;;;20.77;53.92
56807;BME280;42687;42.524;12.052;2023-04-27T07:14:15;96821.09;;;20.97;53.91
56807;BME280;42687;42.524;12.052;2023-04-27T07:16:41;96831.16;;;21.03;54.36
56807;BME280;42687;42.524;12.052;2023-04-27T07:19:09;96831.78;;;20.97;54.76
56807;BME280;42687;42.524;12.052;2023-04-27T07:21:34;96836.97;;;20.98;55.38
56807;BME280;42687;42.524;12.052;2023-04-27T07:24:00;96832.91;;;20.94;55.35
56807;BME280;42687;42.524;12.052;2023-04-27T07:26:26;96839.88;;;21.05;55.65
56807;BME280;42687;42.524;12.052;2023-04-27T07:28:52;96830.28;;;21.21;55.57
56807;BME280;42687;42.524;12.052;2023-04-27T07:31:18;96830.28;;;21.39;55.74
56807;BME280;42687;42.524;12.052;2023-04-27T07:33:43;96841.97;;;21.56;55.66
56807;BME280;42687;42.524;12.052;2023-04-27T07:36:09;96778.53;;;21.30;55.65
56807;BME280;42687;42.524;12.052;2023-04-27T07:38:35;96832.00;;;21.66;55.85
56807;BME280;42687;42.524;12.052;2023-04-27T07:41:02;96783.84;;;21.66;55.79
56807;BME280;42687;42.524;12.052;2023-04-27T07:43:30;96835.94;;;22.14;55.47
56807;BME280;42687;42.524;12.052;2023-04-27T07:45:57;96829.28;;;22.19;55.49
56807;BME280;42687;42.524;12.052;2023-04-27T07:48:23;96820.69;;;22.07;55.65
56807;BME280;42687;42.524;12.052;2023-04-27T07:50:49;96822.44;;;22.24;55.82
56807;BME280;42687;42.524;12.052;2023-04-27T07:53:15;96830.50;;;22.32;55.49
56807;BME280;42687;42.524;12.052;2023-04-27T07:55:41;96816.72;;;22.19;55.87
56807;BME280;42687;42.524;12.052;2023-04-27T07:58:09;96838.47;;;22.16;56.14
56807;BME280;42687;42.524;12.052;2023-04-27T08:00:35;96832.09;;;22.17;56.08
56807;BME280;42687;42.524;12.052;2023-04-27T08:03:01;96842.00;;;22.16;56.26
56807;BME280;42687;42.524;12.052;2023-04-27T08:05:28;96830.41;;;22.08;56.49
56807;BME280;42687;42.524;12.052;2023-04-27T08:07:53;96835.16;;;22.22;56.18
56807;BME280;42687;42.524;12.052;2023-04-27T08:10:19;96825.97;;;22.25;55.87
56807;BME280;42687;42.524;12.052;2023-04-27T08:12:45;96835.41;;;22.37;55.68
56807;BME280;42687;42.524;12.052;2023-04-27T08:15:11;96847.53;;;22.49;55.37
56807;BME280;42687;42.524;12.052;2023-04-27T08:17:37;96842.00;;;22.51;55.04
56807;BME280;42687;42.524;12.052;2023-04-27T08:20:07;96837.50;;;22.25;55.43
56807;BME280;42687;42.524;12.052;2023-04-27T08:22:37;96837.16;;;22.20;55.63
56807;BME280;42687;42.524;12.052;2023-04-27T08:25:03;96840.09;;;22.35;55.33
56807;BME280;42687;42.524;12.052;2023-04-27T08:27:29;96843.53;;;22.62;54.98
56807;BME280;42687;42.524;12.052;2023-04-27T08:29:55;96842.56;;;22.71;54.57
56807;BME280;42687;42.524;12.052;2023-04-27T08:32:21;96841.03;;;22.60;54.19
56807;BME280;42687;42.524;12.052;2023-04-27T08:34:46;96844.97;;;22.40;54.79
56807;BME280;42687;42.524;12.052;2023-04-27T08:37:12;96846.59;;;22.32;54.83
56807;BME280;42687;42.524;12.052;2023-04-27T08:39:38;96844.25;;;22.29;54.67
56807;BME280;42687;42.524;12.052;2023-04-27T08:42:12;96851.03;;;22.50;54.40
56807;BME280;42687;42.524;12.052;2023-04-27T08:44:41;96852.75;;;22.59;54.31
56807;BME280;42687;42.524;12.052;2023-04-27T08:47:08;96852.28;;;22.80;53.88
56807;BME280;42687;42.524;12.052;2023-04-27T08:49:35;96852.28;;;22.80;53.69
56807;BME280;42687;42.524;12.052;2023-04-27T08:52:03;96835.34;;;22.72;53.92
56807;BME280;42687;42.524;12.052;2023-04-27T08:54:35;96855.34;;;22.94;53.54
56807;BME280;42687;42.524;12.052;2023-04-27T08:57:00;96861.22;;;23.06;53.29
56807;BME280;42687;42.524;12.052;2023-04-27T08:59:27;96854.34;;;23.03;53.40
56807;BME280;42687;42.524;12.052;2023-04-27T09:01:53;96855.97;;;22.79;53.43
56807;BME280;42687;42.524;12.052;2023-04-27T09:04:19;96854.97;;;22.89;53.57
56807;BME280;42687;42.524;12.052;2023-04-27T09:06:44;96837.06;;;22.89;53.15
56807;BME280;42687;42.524;12.052;2023-04-27T09:09:20;96867.91;;;22.93;53.09
56807;BME280;42687;42.524;12.052;2023-04-27T09:11:46;96861.03;;;22.82;53.37
56807;BME280;42687;42.524;12.052;2023-04-27T09:14:18;96861.69;;;22.93;53.15
56807;BME280;42687;42.524;12.052;2023-04-27T09:16:45;96863.47;;;23.19;52.96
56807;BME280;42687;42.524;12.052;2023-04-27T09:19:10;96838.44;;;23.02;53.15
56807;BME280;42687;42.524;12.052;2023-04-27T09:21:36;96855.56;;;23.25;52.94
56807;BME280;42687;42.524;12.052;2023-04-27T09:24:09;96853.22;;;23.72;52.06
56807;BME280;42687;42.524;12.052;2023-04-27T09:26:37;96795.69;;;23.49;51.71
56807;BME280;42687;42.524;12.052;2023-04-27T09:29:03;96859.19;;;24.07;51.23
56807;BME280;42687;42.524;12.052;2023-04-27T09:31:32;96841.41;;;24.14;51.04
56807;BME280;42687;42.524;12.052;2023-04-27T09:33:58;96853.78;;;24.23;51.21
56807;BME280;42687;42.524;12.052;2023-04-27T09:36:25;96848.03;;;24.35;50.45
56807;BME280;42687;42.524;12.052;2023-04-27T09:38:51;96843.38;;;24.20;50.82
56807;BME280;42687;42.524;12.052;2023-04-27T09:41:18;96846.13;;;24.04;50.92
56807;BME280;42687;42.524;12.052;2023-04-27T09:43:44;96852.03;;;23.91;51.02
56807;BME280;42687;42.524;12.052;2023-04-27T09:46:14;96852.31;;;24.04;51.03
56807;BME280;42687;42.524;12.052;2023-04-27T09:48:41;96845.13;;;24.05;50.81
56807;BME280;42687;42.524;12.052;2023-04-27T09:51:07;96835.00;;;24.15;50.04
56807;BME280;42687;42.524;12.052;2023-04-27T09:53:37;96853.84;;;24.46;49.23
56807;BME280;42687;42.524;12.052;2023-04-27T10:09:04;96865.00;;;24.35;49.18
56807;BME280;42687;42.524;12.052;2023-04-27T10:11:38;96847.03;;;24.36;48.90
56807;BME280;42687;42.524;12.052;2023-04-27T10:14:09;96859.41;;;24.85;48.46
56807;BME280;42687;42.524;12.052;2023-04-27T10:16:55;96850.84;;;24.81;48.44
56807;BME280;42687;42.524;12.052;2023-04-27T10:19:23;96854.25;;;24.27;48.49
56807;BME280;42687;42.524;12.052;2023-04-27T10:21:58;96859.91;;;23.18;50.16
56807;BME280;42687;42.524;12.052;2023-04-27T10:24:37;96867.84;;;22.69;50.58
56807;BME280;42687;42.524;12.052;2023-04-27T10:27:08;96850.63;;;22.88;50.36
56807;BME280;42687;42.524;12.052;2023-04-27T10:29:35;96858.78;;;23.37;49.80
56807;BME280;42687;42.524;12.052;2023-04-27T10:32:09;96865.56;;;24.06;48.68
56807;BME280;42687;42.524;12.052;2023-04-27T10:34:36;96852.47;;;24.19;47.95
56807;BME280;42687;42.524;12.052;2023-04-27T10:37:10;96847.97;;;23.95;47.85
56807;BME280;42687;42.524;12.052;2023-04-27T10:39:38;96860.94;;;23.67;48.41
56807;BME280;42687;42.524;12.052;2023-04-27T10:42:05;96858.59;;;23.72;48.17
56807;BME280;42687;42.524;12.052;2023-04-27T10:44:33;96852.53;;;23.70;48.13
56807;BME280;42687;42.524;12.052;2023-04-27T10:47:01;96850.69;;;23.70;48.25
56807;BME280;42687;42.524;12.052;2023-04-27T10:49:28;96853.19;;;23.96;47.94
56807;BME280;42687;42.524;12.052;2023-04-27T10:51:56;96861.44;;;24.43;47.44
56807;BME280;42687;42.524;12.052;2023-04-27T10:54:29;96854.19;;;24.52;47.23
56807;BME280;42687;42.524;12.052;2023-04-27T10:57:03;96811.56;;;23.92;47.96
56807;BME280;42687;42.524;12.052;2023-04-27T10:59:29;96847.25;;;24.26;47.78
56807;BME280;42687;42.524;12.052;2023-04-27T11:01:55;96834.31;;;24.21;47.58
56807;BME280;42687;42.524;12.052;2023-04-27T11:04:21;96836.78;;;24.39;47.44
56807;BME280;42687;42.524;12.052;2023-04-27T11:06:47;96852.44;;;24.59;46.91
56807;BME280;42687;42.524;12.052;2023-04-27T11:09:13;96840.09;;;24.41;47.15
56807;BME280;42687;42.524;12.052;2023-04-27T11:11:51;96853.25;;;24.28;46.95
56807;BME280;42687;42.524;12.052;2023-04-27T11:14:21;96839.13;;;24.34;47.04
56807;BME280;42687;42.524;12.052;2023-04-27T11:16:47;96840.06;;;24.49;46.28
56807;BME280;42687;42.524;12.052;2023-04-27T11:19:13;96839.19;;;24.66;45.71
56807;BME280;42687;42.524;12.052;2023-04-27T11:21:39;96849.22;;;24.72;45.93
56807;BME280;42687;42.524;12.052;2023-04-27T11:24:06;96849.31;;;24.87;45.35
56807;BME280;42687;42.524;12.052;2023-04-27T11:26:32;96843.59;;;24.90;44.96
56807;BME280;42687;42.524;12.052;2023-04-27T11:29:08;96833.16;;;24.63;45.04
56807;BME280;42687;42.524;12.052;2023-04-27T11:31:48;96837.72;;;24.46;44.92
56807;BME280;42687;42.524;12.052;2023-04-27T11:34:23;96831.50;;;24.06;45.96
56807;BME280;42687;42.524;12.052;2023-04-27T11:37:02;96841.72;;;24.19;45.73
56807;BME280;42687;42.524;12.052;2023-04-27T11:39:36;96837.47;;;24.33;45.41
56807;BME280;42687;42.524;12.052;2023-04-27T11:44:55;96829.44;;;24.25;45.14
56807;BME280;42687;42.524;12.052;2023-04-27T11:47:23;96786.88;;;23.97;45.29
56807;BME280;42687;42.524;12.052;2023-04-27T11:49:50;96843.38;;;24.28;45.15
56807;BME280;42687;42.524;12.052;2023-04-27T11:52:17;96818.69;;;24.25;45.24
56807;BME280;42687;42.524;12.052;2023-04-27T11:54:53;96829.75;;;24.30;45.56
56807;BME280;42687;42.524;12.052;2023-04-27T11:57:34;96813.63;;;24.30;45.53
56807;BME280;42687;42.524;12.052;2023-04-27T12:00:01;96811.94;;;24.29;45.49
56807;BME280;42687;42.524;12.052;2023-04-27T12:02:33;96821.91;;;24.52;45.32
56807;BME280;42687;42.524;12.052;2023-04-27T12:04:59;96821.81;;;24.76;44.75
56807;BME280;42687;42.524;12.052;2023-04-27T12:07:25;96806.00;;;24.81;44.53
56807;BME280;42687;42.524;12.052;2023-04-27T12:09:51;96829.47;;;24.88;44.72
56807;BME280;42687;42.524;12.052;2023-04-27T12:12:17;96820.09;;;24.84;44.65
56807;BME280;42687;42.524;12.052;2023-04-27T12:14:44;96815.84;;;24.66;41.85
56807;BME280;42687;42.524;12.052;2023-04-27T12:17:10;96811.25;;;24.35;45.28
56807;BME280;42687;42.524;12.052;2023-04-27T12:19:36;96767.06;;;24.06;45.70
56807;BME280;42687;42.524;12.052;2023-04-27T12:22:02;96839.41;;;24.47;45.45
56807;BME280;42687;42.524;12.052;2023-04-27T12:24:29;96821.25;;;24.49;45.29
56807;BME280;42687;42.524;12.052;2023-04-27T12:26:55;96827.28;;;24.52;45.22
56807;BME280;42687;42.524;12.052;2023-04-27T12:29:21;96803.88;;;24.29;45.21
56807;BME280;42687;42.524;12.052;2023-04-27T12:31:47;96817.81;;;24.33;45.49
56807;BME280;42687;42.524;12.052;2023-04-27T12:34:12;96813.50;;;24.23;45.46
56807;BME280;42687;42.524;12.052;2023-04-27T12:36:38;96822.00;;;24.35;45.46
56807;BME280;42687;42.524;12.052;2023-04-27T12:39:15;96818.09;;;24.46;45.06
56807;BME280;42687;42.524;12.052;2023-04-27T12:41:48;96813.81;;;24.60;44.87
56807;BME280;42687;42.524;12.052;2023-04-27T12:44:18;96817.75;;;24.80;44.69
56807;BME280;42687;42.524;12.052;2023-04-27T12:46:45;96827.97;;;24.85;44.87
56807;BME280;42687;42.524;12.052;2023-04-27T12:49:12;96831.53;;;24.86;44.76
56807;BME280;42687;42.524;12.052;2023-04-27T12:51:38;96832.09;;;24.73;44.97
56807;BME280;42687;42.524;12.052;2023-04-27T12:54:05;96826.59;;;24.66;44.85
56807;BME280;42687;42.524;12.052;2023-04-27T12:56:35;96821.66;;;24.78;44.54
56807;BME280;42687;42.524;12.052;2023-04-27T12:59:01;96824.63;;;25.06;44.76
56807;BME280;42687;42.524;12.052;2023-04-27T13:01:27;96816.09;;;25.26;44.23
56807;BME280;42687;42.524;12.052;2023-04-27T13:03:54;96821.34;;;25.19;44.43
56807;BME280;42687;42.524;12.052;2023-04-27T13:06:20;96820.75;;;25.09;44.89
56807;BME280;42687;42.524;12.052;2023-04-27T13:08:48;96756.63;;;24.74;44.46